Portada
METAR-TAF:

METAR-TAF

Aeropuertos :

Aeropuerto Internacional de Cantón-Baiyun

Cantón, China

latitud: 23-10N, longitud: 113-20E, altitud: 8 m

Observación

El informe se hizo hace 33 minutos, a las 11:00 UTC
Viento 4 kt del oeste
Temperatura 24°C
Humedad 50%
Presión 1021 hPa
Visibilidad 10 km o más
sin nubes por debajo de 1500 m y sin presencia de cumulonimbus.

METAR: ZGGG 231100Z 26002MPS CAVOK 24/13 Q1021 NOSIG

Hora: 19:33 (11:33 UTC)

Pronóstico

El informe se hizo hace 8 horas y 31 minutos, a las 03:02 UTC
Pronóstico válido del 23 a las 06 UTC al 24 a las 06 UTC
Viento 8 kt del este
Visibilidad: 7000 m
Nubes dispersas a una altura de 4000 ft
Evolucionando progresivamente
del 23 a las 21 UTC al 23 a las 22 UTC
Visibilidad: 4000 m
neblina
Evolucionando progresivamente
del 24 a las 01 UTC al 24 a las 02 UTC
Visibilidad: 7000 m

TAF: ZGGG 230302Z 2306/2406 09004MPS 7000 SCT040 TX25/2307Z TN15/2322Z BECMG 2321/2322 4000 BR BECMG 2401/2402 7000

Observaciones y pronósticos meteorológicos de más de 4000 aeropuertos (mensajes METAR y TAF).

Los puntos amarillos y rojos representan las estaciones disponibles.

Ponga el ratón en el punto deseado para ver el nombre de la estación.

Haga clic para ver las observaciones y los pronósticos meteorológicos.

Para cambiar el mapa : haga clic en los botones verdes con una cruz de color negro para hacer un zoom, en el botón verde con un guión para alejar o en las flechas verdes para mapas adyacentes.


METAR-TAF: